Accueil
METAR-TAF:

METAR-TAF

Aéroports :

Nakhon Ratchasima, Thaïlande

latitude: 14-56-58N, longitude: 102-18-45E, altitude: 233 m

Observation

Le bulletin a été fait il y a 3 heures et 10 minutes, à 11:00 UTC
Vent 5 kt de sud, variant entre sud/sud-est et sud/sud-ouest
Température 31°C
Humidité 43%
Pression 1008 hPa
Visibilité 10 km ou plus
Quelques nuages à une hauteur de 3500 ft

METAR: VTUQ 261100Z 18005KT 150V210 9999 FEW035 31/17 Q1008 NOSIG

Heure: 21:10 (14:10 UTC)

Prévision

Le bulletin a été fait il y a 3 heures et 10 minutes, à 11:00 UTC
Prévision valable du 26 à 12 UTC au 27 à 12 UTC
Vent 6 kt de sud-ouest
Visibilité: 9000 m
Quelques nuages à une hauteur de 3500 ft

TAF: VTUQ 261100Z 2612/2712 22006KT 9000 FEW035

Observations et prévisions météorologiques de plus de 4000 aéroports (messages METAR et TAF).

Les stations disponibles sont représentées par des disques jaunes et rouges sur la carte.

Passer la souris dessus pour voir le nom de la station.

Cliquer dessus pour voir les observations et prévisions météorologiques.

Pour changer de carte: cliquez sur les boutons verts avec une croix noire pour zoomer, sur le bouton vert avec un tiret pour effectuer un zoom arrière, ou sur les flèches vertes pour les cartes adjacentes.


METAR-TAF: